sensor_id;sensor_type;location;lat;lon;timestamp;P1;durP1;ratioP1;P2;durP2;ratioP2
45041;SDS011;30779;52.096;4.410;2023-02-28T00:00:59;6.53;;;3.40;;
45041;SDS011;30779;52.096;4.410;2023-02-28T00:04:00;5.55;;;3.17;;
45041;SDS011;30779;52.096;4.410;2023-02-28T00:07:01;4.65;;;2.80;;
45041;SDS011;30779;52.096;4.410;2023-02-28T00:10:03;3.33;;;2.67;;
45041;SDS011;30779;52.096;4.410;2023-02-28T00:13:06;5.68;;;3.13;;
45041;SDS011;30779;52.096;4.410;2023-02-28T00:16:08;6.32;;;3.58;;
45041;SDS011;30779;52.096;4.410;2023-02-28T00:19:10;6.03;;;3.40;;
45041;SDS011;30779;52.096;4.410;2023-02-28T00:22:13;5.97;;;3.03;;
45041;SDS011;30779;52.096;4.410;2023-02-28T00:25:15;4.80;;;2.95;;
45041;SDS011;30779;52.096;4.410;2023-02-28T00:28:17;8.50;;;3.35;;
45041;SDS011;30779;52.096;4.410;2023-02-28T00:31:18;5.82;;;3.05;;
45041;SDS011;30779;52.096;4.410;2023-02-28T00:34:19;7.32;;;3.63;;
45041;SDS011;30779;52.096;4.410;2023-02-28T00:37:20;8.80;;;3.47;;
45041;SDS011;30779;52.096;4.410;2023-02-28T00:40:21;7.05;;;2.95;;
45041;SDS011;30779;52.096;4.410;2023-02-28T00:43:22;5.53;;;3.10;;
45041;SDS011;30779;52.096;4.410;2023-02-28T00:46:23;5.88;;;3.13;;
45041;SDS011;30779;52.096;4.410;2023-02-28T00:49:25;5.57;;;3.15;;
45041;SDS011;30779;52.096;4.410;2023-02-28T00:52:26;4.32;;;3.03;;
45041;SDS011;30779;52.096;4.410;2023-02-28T00:55:27;5.80;;;2.83;;
45041;SDS011;30779;52.096;4.410;2023-02-28T00:58:28;5.63;;;2.85;;
45041;SDS011;30779;52.096;4.410;2023-02-28T01:01:29;7.20;;;3.45;;
45041;SDS011;30779;52.096;4.410;2023-02-28T01:04:30;8.98;;;3.65;;
45041;SDS011;30779;52.096;4.410;2023-02-28T01:07:31;5.40;;;3.03;;
45041;SDS011;30779;52.096;4.410;2023-02-28T01:10:32;5.68;;;3.15;;
45041;SDS011;30779;52.096;4.410;2023-02-28T01:13:36;5.15;;;2.90;;
45041;SDS011;30779;52.096;4.410;2023-02-28T01:16:37;5.68;;;3.15;;
45041;SDS011;30779;52.096;4.410;2023-02-28T01:19:38;5.60;;;3.10;;
45041;SDS011;30779;52.096;4.410;2023-02-28T01:22:39;4.28;;;2.80;;
45041;SDS011;30779;52.096;4.410;2023-02-28T01:25:40;6.10;;;3.25;;
45041;SDS011;30779;52.096;4.410;2023-02-28T01:28:41;6.57;;;3.45;;
45041;SDS011;30779;52.096;4.410;2023-02-28T01:31:42;4.55;;;2.97;;
45041;SDS011;30779;52.096;4.410;2023-02-28T01:34:43;5.97;;;3.63;;
45041;SDS011;30779;52.096;4.410;2023-02-28T01:37:44;5.90;;;3.35;;
45041;SDS011;30779;52.096;4.410;2023-02-28T01:40:45;6.68;;;3.53;;
45041;SDS011;30779;52.096;4.410;2023-02-28T01:46:47;5.57;;;3.60;;
45041;SDS011;30779;52.096;4.410;2023-02-28T01:49:49;3.28;;;2.83;;
45041;SDS011;30779;52.096;4.410;2023-02-28T01:52:51;7.40;;;3.40;;
45041;SDS011;30779;52.096;4.410;2023-02-28T01:55:53;5.95;;;3.55;;
45041;SDS011;30779;52.096;4.410;2023-02-28T01:58:54;5.57;;;3.40;;
45041;SDS011;30779;52.096;4.410;2023-02-28T02:01:55;8.45;;;3.60;;
45041;SDS011;30779;52.096;4.410;2023-02-28T02:05:00;6.18;;;3.30;;
45041;SDS011;30779;52.096;4.410;2023-02-28T02:08:08;8.30;;;5.03;;
45041;SDS011;30779;52.096;4.410;2023-02-28T02:11:09;5.32;;;3.17;;
45041;SDS011;30779;52.096;4.410;2023-02-28T02:17:28;6.70;;;3.38;;
45041;SDS011;30779;52.096;4.410;2023-02-28T02:20:35;4.55;;;3.42;;
45041;SDS011;30779;52.096;4.410;2023-02-28T02:23:44;4.25;;;3.25;;
45041;SDS011;30779;52.096;4.410;2023-02-28T02:26:52;6.28;;;3.92;;
45041;SDS011;30779;52.096;4.410;2023-02-28T02:36:23;6.78;;;3.35;;
45041;SDS011;30779;52.096;4.410;2023-02-28T02:39:45;5.80;;;3.10;;
45041;SDS011;30779;52.096;4.410;2023-02-28T02:42:50;8.70;;;4.28;;
45041;SDS011;30779;52.096;4.410;2023-02-28T02:45:53;6.30;;;4.13;;
45041;SDS011;30779;52.096;4.410;2023-02-28T02:48:55;6.00;;;3.45;;
45041;SDS011;30779;52.096;4.410;2023-02-28T02:51:57;4.70;;;3.30;;
45041;SDS011;30779;52.096;4.410;2023-02-28T02:54:59;6.55;;;3.75;;
45041;SDS011;30779;52.096;4.410;2023-02-28T02:58:02;4.55;;;3.53;;
45041;SDS011;30779;52.096;4.410;2023-02-28T03:01:04;6.93;;;3.70;;
45041;SDS011;30779;52.096;4.410;2023-02-28T03:04:09;7.68;;;4.28;;
45041;SDS011;30779;52.096;4.410;2023-02-28T03:07:11;6.07;;;4.40;;
45041;SDS011;30779;52.096;4.410;2023-02-28T03:13:42;6.60;;;3.60;;
45041;SDS011;30779;52.096;4.410;2023-02-28T03:19:55;10.00;;;6.00;;
45041;SDS011;30779;52.096;4.410;2023-02-28T03:26:04;8.32;;;5.00;;
45041;SDS011;30779;52.096;4.410;2023-02-28T03:29:15;8.73;;;4.47;;
45041;SDS011;30779;52.096;4.410;2023-02-28T03:32:23;10.27;;;4.93;;
45041;SDS011;30779;52.096;4.410;2023-02-28T03:35:28;9.18;;;5.18;;
45041;SDS011;30779;52.096;4.410;2023-02-28T03:38:34;9.13;;;4.82;;
45041;SDS011;30779;52.096;4.410;2023-02-28T03:41:36;9.68;;;4.60;;
45041;SDS011;30779;52.096;4.410;2023-02-28T03:44:49;7.40;;;4.85;;
45041;SDS011;30779;52.096;4.410;2023-02-28T03:48:00;7.38;;;4.78;;
45041;SDS011;30779;52.096;4.410;2023-02-28T03:51:01;9.27;;;4.80;;
45041;SDS011;30779;52.096;4.410;2023-02-28T03:54:05;7.55;;;4.70;;
45041;SDS011;30779;52.096;4.410;2023-02-28T04:00:09;11.77;;;5.35;;
45041;SDS011;30779;52.096;4.410;2023-02-28T04:03:13;9.65;;;5.57;;
45041;SDS011;30779;52.096;4.410;2023-02-28T04:06:16;8.18;;;5.13;;
45041;SDS011;30779;52.096;4.410;2023-02-28T04:12:19;12.25;;;7.18;;
45041;SDS011;30779;52.096;4.410;2023-02-28T04:15:23;6.70;;;4.50;;
45041;SDS011;30779;52.096;4.410;2023-02-28T04:18:24;12.18;;;5.40;;
45041;SDS011;30779;52.096;4.410;2023-02-28T04:21:25;11.50;;;5.88;;
45041;SDS011;30779;52.096;4.410;2023-02-28T04:24:27;11.98;;;6.20;;
45041;SDS011;30779;52.096;4.410;2023-02-28T04:27:28;11.30;;;6.70;;
45041;SDS011;30779;52.096;4.410;2023-02-28T04:30:29;10.95;;;6.03;;
45041;SDS011;30779;52.096;4.410;2023-02-28T04:33:32;8.73;;;5.80;;
45041;SDS011;30779;52.096;4.410;2023-02-28T04:36:33;10.80;;;6.38;;
45041;SDS011;30779;52.096;4.410;2023-02-28T04:39:35;9.30;;;5.78;;
45041;SDS011;30779;52.096;4.410;2023-02-28T04:42:36;8.93;;;5.88;;
45041;SDS011;30779;52.096;4.410;2023-02-28T04:45:37;9.07;;;6.28;;
45041;SDS011;30779;52.096;4.410;2023-02-28T04:48:39;9.48;;;6.88;;
45041;SDS011;30779;52.096;4.410;2023-02-28T04:51:41;9.32;;;6.35;;
45041;SDS011;30779;52.096;4.410;2023-02-28T04:54:42;10.63;;;6.38;;
45041;SDS011;30779;52.096;4.410;2023-02-28T04:57:43;10.65;;;6.50;;
45041;SDS011;30779;52.096;4.410;2023-02-28T05:00:44;11.02;;;6.65;;
45041;SDS011;30779;52.096;4.410;2023-02-28T05:03:45;11.30;;;6.80;;
45041;SDS011;30779;52.096;4.410;2023-02-28T05:06:46;8.30;;;6.03;;
45041;SDS011;30779;52.096;4.410;2023-02-28T05:09:47;7.43;;;5.90;;
45041;SDS011;30779;52.096;4.410;2023-02-28T05:12:48;10.00;;;6.15;;
45041;SDS011;30779;52.096;4.410;2023-02-28T05:15:49;11.85;;;7.10;;
45041;SDS011;30779;52.096;4.410;2023-02-28T05:18:50;12.15;;;6.05;;
45041;SDS011;30779;52.096;4.410;2023-02-28T05:21:54;8.13;;;5.07;;
45041;SDS011;30779;52.096;4.410;2023-02-28T05:24:55;9.30;;;5.55;;
45041;SDS011;30779;52.096;4.410;2023-02-28T05:27:56;9.77;;;5.43;;
45041;SDS011;30779;52.096;4.410;2023-02-28T05:30:57;7.10;;;4.72;;
45041;SDS011;30779;52.096;4.410;2023-02-28T05:33:58;9.43;;;6.07;;
45041;SDS011;30779;52.096;4.410;2023-02-28T05:36:59;8.88;;;5.78;;
45041;SDS011;30779;52.096;4.410;2023-02-28T05:40:01;9.00;;;6.28;;
45041;SDS011;30779;52.096;4.410;2023-02-28T05:43:05;11.45;;;6.90;;
45041;SDS011;30779;52.096;4.410;2023-02-28T05:46:06;10.65;;;6.72;;
45041;SDS011;30779;52.096;4.410;2023-02-28T05:49:08;10.52;;;7.60;;
45041;SDS011;30779;52.096;4.410;2023-02-28T05:52:09;13.60;;;7.35;;
45041;SDS011;30779;52.096;4.410;2023-02-28T05:55:10;9.73;;;6.85;;
45041;SDS011;30779;52.096;4.410;2023-02-28T05:58:11;13.35;;;8.07;;
45041;SDS011;30779;52.096;4.410;2023-02-28T06:01:23;12.27;;;8.15;;
45041;SDS011;30779;52.096;4.410;2023-02-28T06:04:24;10.13;;;6.57;;
45041;SDS011;30779;52.096;4.410;2023-02-28T06:07:25;11.18;;;6.97;;
45041;SDS011;30779;52.096;4.410;2023-02-28T06:10:26;12.80;;;8.32;;
45041;SDS011;30779;52.096;4.410;2023-02-28T06:13:27;12.15;;;6.82;;
45041;SDS011;30779;52.096;4.410;2023-02-28T06:16:29;12.65;;;7.15;;
45041;SDS011;30779;52.096;4.410;2023-02-28T06:19:30;10.15;;;7.30;;
45041;SDS011;30779;52.096;4.410;2023-02-28T06:22:31;11.60;;;7.00;;
45041;SDS011;30779;52.096;4.410;2023-02-28T06:25:32;10.82;;;6.72;;
45041;SDS011;30779;52.096;4.410;2023-02-28T06:28:33;9.68;;;6.53;;
45041;SDS011;30779;52.096;4.410;2023-02-28T06:31:34;9.32;;;7.13;;
45041;SDS011;30779;52.096;4.410;2023-02-28T06:34:35;11.07;;;7.68;;
45041;SDS011;30779;52.096;4.410;2023-02-28T06:37:36;11.40;;;7.43;;
45041;SDS011;30779;52.096;4.410;2023-02-28T06:40:38;11.13;;;6.70;;
45041;SDS011;30779;52.096;4.410;2023-02-28T06:43:40;10.07;;;7.65;;
45041;SDS011;30779;52.096;4.410;2023-02-28T06:46:42;10.98;;;7.30;;
45041;SDS011;30779;52.096;4.410;2023-02-28T06:49:43;8.18;;;6.43;;
45041;SDS011;30779;52.096;4.410;2023-02-28T06:52:45;10.40;;;6.80;;
45041;SDS011;30779;52.096;4.410;2023-02-28T06:55:46;12.70;;;7.68;;
45041;SDS011;30779;52.096;4.410;2023-02-28T06:58:47;13.10;;;8.02;;
45041;SDS011;30779;52.096;4.410;2023-02-28T07:01:49;11.32;;;7.35;;
45041;SDS011;30779;52.096;4.410;2023-02-28T07:04:50;11.80;;;8.57;;
45041;SDS011;30779;52.096;4.410;2023-02-28T07:07:51;10.90;;;7.72;;
45041;SDS011;30779;52.096;4.410;2023-02-28T07:10:53;10.95;;;7.85;;
45041;SDS011;30779;52.096;4.410;2023-02-28T07:13:54;8.80;;;7.25;;
45041;SDS011;30779;52.096;4.410;2023-02-28T07:16:56;9.75;;;7.50;;
45041;SDS011;30779;52.096;4.410;2023-02-28T07:19:57;10.93;;;7.70;;
45041;SDS011;30779;52.096;4.410;2023-02-28T07:22:58;18.38;;;8.27;;
45041;SDS011;30779;52.096;4.410;2023-02-28T07:25:59;9.07;;;5.95;;
45041;SDS011;30779;52.096;4.410;2023-02-28T07:29:00;8.70;;;5.55;;
45041;SDS011;30779;52.096;4.410;2023-02-28T07:32:02;9.55;;;4.90;;
45041;SDS011;30779;52.096;4.410;2023-02-28T07:35:03;5.15;;;4.60;;
45041;SDS011;30779;52.096;4.410;2023-02-28T07:38:04;7.88;;;5.30;;
45041;SDS011;30779;52.096;4.410;2023-02-28T07:41:07;7.65;;;5.20;;
45041;SDS011;30779;52.096;4.410;2023-02-28T07:44:11;6.93;;;5.32;;
45041;SDS011;30779;52.096;4.410;2023-02-28T07:47:12;6.65;;;5.07;;
45041;SDS011;30779;52.096;4.410;2023-02-28T07:50:14;10.63;;;5.25;;
45041;SDS011;30779;52.096;4.410;2023-02-28T07:53:15;11.88;;;5.47;;
45041;SDS011;30779;52.096;4.410;2023-02-28T07:56:16;7.78;;;5.45;;
45041;SDS011;30779;52.096;4.410;2023-02-28T07:59:17;7.47;;;6.00;;
45041;SDS011;30779;52.096;4.410;2023-02-28T08:02:18;7.20;;;5.35;;
45041;SDS011;30779;52.096;4.410;2023-02-28T08:05:19;6.85;;;5.38;;
45041;SDS011;30779;52.096;4.410;2023-02-28T08:08:21;6.97;;;5.57;;
45041;SDS011;30779;52.096;4.410;2023-02-28T08:11:22;7.93;;;5.95;;
45041;SDS011;30779;52.096;4.410;2023-02-28T08:14:24;7.18;;;5.55;;
45041;SDS011;30779;52.096;4.410;2023-02-28T08:17:25;7.32;;;6.10;;
45041;SDS011;30779;52.096;4.410;2023-02-28T08:20:26;7.72;;;5.63;;
45041;SDS011;30779;52.096;4.410;2023-02-28T08:23:27;8.88;;;6.72;;
45041;SDS011;30779;52.096;4.410;2023-02-28T08:26:28;8.20;;;6.13;;
45041;SDS011;30779;52.096;4.410;2023-02-28T08:29:29;9.55;;;6.13;;
45041;SDS011;30779;52.096;4.410;2023-02-28T08:32:31;8.77;;;6.50;;
45041;SDS011;30779;52.096;4.410;2023-02-28T08:35:34;8.77;;;5.95;;
45041;SDS011;30779;52.096;4.410;2023-02-28T08:38:36;10.18;;;6.32;;
45041;SDS011;30779;52.096;4.410;2023-02-28T08:41:37;9.20;;;6.93;;
45041;SDS011;30779;52.096;4.410;2023-02-28T08:44:38;9.00;;;6.60;;
45041;SDS011;30779;52.096;4.410;2023-02-28T08:47:40;9.70;;;7.00;;
45041;SDS011;30779;52.096;4.410;2023-02-28T08:50:41;10.52;;;6.82;;
45041;SDS011;30779;52.096;4.410;2023-02-28T08:53:42;7.95;;;5.90;;
45041;SDS011;30779;52.096;4.410;2023-02-28T08:56:43;8.30;;;6.43;;
45041;SDS011;30779;52.096;4.410;2023-02-28T08:59:44;9.80;;;6.95;;
45041;SDS011;30779;52.096;4.410;2023-02-28T09:02:45;7.65;;;6.75;;
45041;SDS011;30779;52.096;4.410;2023-02-28T09:08:57;9.60;;;6.78;;
45041;SDS011;30779;52.096;4.410;2023-02-28T09:11:59;9.73;;;6.90;;
45041;SDS011;30779;52.096;4.410;2023-02-28T09:15:00;8.88;;;6.65;;
45041;SDS011;30779;52.096;4.410;2023-02-28T09:18:01;11.48;;;7.75;;
45041;SDS011;30779;52.096;4.410;2023-02-28T09:21:03;14.07;;;7.82;;
45041;SDS011;30779;52.096;4.410;2023-02-28T09:24:04;8.15;;;6.25;;
45041;SDS011;30779;52.096;4.410;2023-02-28T09:27:06;8.93;;;6.22;;
45041;SDS011;30779;52.096;4.410;2023-02-28T09:30:07;8.68;;;5.82;;
45041;SDS011;30779;52.096;4.410;2023-02-28T09:33:08;7.18;;;5.38;;
45041;SDS011;30779;52.096;4.410;2023-02-28T09:36:09;8.07;;;6.50;;
45041;SDS011;30779;52.096;4.410;2023-02-28T09:39:11;6.13;;;4.70;;
45041;SDS011;30779;52.096;4.410;2023-02-28T09:42:21;6.25;;;4.88;;
45041;SDS011;30779;52.096;4.410;2023-02-28T09:45:24;6.35;;;4.63;;
45041;SDS011;30779;52.096;4.410;2023-02-28T09:48:32;7.15;;;4.88;;
45041;SDS011;30779;52.096;4.410;2023-02-28T09:51:40;6.10;;;4.85;;
45041;SDS011;30779;52.096;4.410;2023-02-28T09:54:44;6.68;;;4.60;;
45041;SDS011;30779;52.096;4.410;2023-02-28T09:57:45;7.18;;;5.47;;
45041;SDS011;30779;52.096;4.410;2023-02-28T10:00:46;6.53;;;4.45;;
45041;SDS011;30779;52.096;4.410;2023-02-28T10:06:52;5.90;;;4.80;;
45041;SDS011;30779;52.096;4.410;2023-02-28T10:09:55;6.05;;;4.63;;
45041;SDS011;30779;52.096;4.410;2023-02-28T10:12:59;6.03;;;4.63;;
45041;SDS011;30779;52.096;4.410;2023-02-28T10:19:06;7.50;;;5.82;;
45041;SDS011;30779;52.096;4.410;2023-02-28T10:22:11;5.03;;;4.53;;
45041;SDS011;30779;52.096;4.410;2023-02-28T10:25:19;6.05;;;4.60;;
45041;SDS011;30779;52.096;4.410;2023-02-28T10:28:20;5.22;;;4.18;;
45041;SDS011;30779;52.096;4.410;2023-02-28T10:31:21;6.68;;;4.65;;
45041;SDS011;30779;52.096;4.410;2023-02-28T10:34:22;4.63;;;4.10;;
45041;SDS011;30779;52.096;4.410;2023-02-28T10:37:25;5.53;;;3.65;;
45041;SDS011;30779;52.096;4.410;2023-02-28T10:43:27;5.30;;;3.80;;
45041;SDS011;30779;52.096;4.410;2023-02-28T10:46:28;4.43;;;4.03;;
45041;SDS011;30779;52.096;4.410;2023-02-28T10:49:30;6.28;;;3.72;;
45041;SDS011;30779;52.096;4.410;2023-02-28T10:52:41;7.10;;;4.07;;
45041;SDS011;30779;52.096;4.410;2023-02-28T10:55:42;5.40;;;3.80;;
45041;SDS011;30779;52.096;4.410;2023-02-28T11:01:53;5.70;;;4.38;;
45041;SDS011;30779;52.096;4.410;2023-02-28T11:04:54;5.57;;;3.78;;
45041;SDS011;30779;52.096;4.410;2023-02-28T11:07:57;3.30;;;3.00;;
45041;SDS011;30779;52.096;4.410;2023-02-28T11:11:03;6.63;;;4.05;;
45041;SDS011;30779;52.096;4.410;2023-02-28T11:14:05;5.30;;;4.20;;
45041;SDS011;30779;52.096;4.410;2023-02-28T11:17:13;6.30;;;3.55;;
45041;SDS011;30779;52.096;4.410;2023-02-28T11:26:40;6.85;;;3.65;;
45041;SDS011;30779;52.096;4.410;2023-02-28T11:29:42;3.50;;;2.65;;
45041;SDS011;30779;52.096;4.410;2023-02-28T11:32:48;3.10;;;2.80;;
45041;SDS011;30779;52.096;4.410;2023-02-28T11:35:50;4.20;;;2.30;;
45041;SDS011;30779;52.096;4.410;2023-02-28T11:39:04;2.72;;;2.30;;
45041;SDS011;30779;52.096;4.410;2023-02-28T11:45:12;3.30;;;2.40;;
45041;SDS011;30779;52.096;4.410;2023-02-28T11:48:27;5.45;;;3.15;;
45041;SDS011;30779;52.096;4.410;2023-02-28T11:51:34;4.68;;;2.35;;
45041;SDS011;30779;52.096;4.410;2023-02-28T11:57:49;2.95;;;2.45;;
45041;SDS011;30779;52.096;4.410;2023-02-28T12:10:31;4.63;;;3.00;;
45041;SDS011;30779;52.096;4.410;2023-02-28T12:20:05;4.10;;;2.50;;
45041;SDS011;30779;52.096;4.410;2023-02-28T12:26:29;2.15;;;1.95;;
45041;SDS011;30779;52.096;4.410;2023-02-28T12:29:34;3.65;;;2.33;;
45041;SDS011;30779;52.096;4.410;2023-02-28T12:32:41;3.20;;;2.40;;
45041;SDS011;30779;52.096;4.410;2023-02-28T12:38:45;2.78;;;2.40;;
45041;SDS011;30779;52.096;4.410;2023-02-28T12:41:49;2.78;;;2.42;;
45041;SDS011;30779;52.096;4.410;2023-02-28T12:44:53;6.25;;;3.05;;
45041;SDS011;30779;52.096;4.410;2023-02-28T12:48:01;3.15;;;2.40;;
45041;SDS011;30779;52.096;4.410;2023-02-28T12:51:05;3.15;;;2.05;;
45041;SDS011;30779;52.096;4.410;2023-02-28T12:54:09;3.08;;;2.63;;
45041;SDS011;30779;52.096;4.410;2023-02-28T12:57:15;2.45;;;2.20;;
45041;SDS011;30779;52.096;4.410;2023-02-28T13:00:20;2.75;;;1.90;;
45041;SDS011;30779;52.096;4.410;2023-02-28T13:06:31;4.40;;;2.40;;
45041;SDS011;30779;52.096;4.410;2023-02-28T13:09:35;3.25;;;2.53;;
45041;SDS011;30779;52.096;4.410;2023-02-28T13:12:37;3.10;;;2.45;;
45041;SDS011;30779;52.096;4.410;2023-02-28T13:16:04;4.20;;;2.42;;
45041;SDS011;30779;52.096;4.410;2023-02-28T13:19:09;3.30;;;3.00;;
45041;SDS011;30779;52.096;4.410;2023-02-28T13:22:22;3.10;;;2.47;;
45041;SDS011;30779;52.096;4.410;2023-02-28T13:41:41;3.95;;;2.33;;
45041;SDS011;30779;52.096;4.410;2023-02-28T13:48:02;4.60;;;2.88;;
45041;SDS011;30779;52.096;4.410;2023-02-28T13:51:26;4.32;;;2.85;;
45041;SDS011;30779;52.096;4.410;2023-02-28T14:06:54;3.35;;;2.42;;
45041;SDS011;30779;52.096;4.410;2023-02-28T14:10:00;3.17;;;2.30;;
45041;SDS011;30779;52.096;4.410;2023-02-28T14:16:35;2.80;;;2.60;;
45041;SDS011;30779;52.096;4.410;2023-02-28T14:19:39;3.90;;;3.50;;
45041;SDS011;30779;52.096;4.410;2023-02-28T14:29:12;4.05;;;2.67;;
45041;SDS011;30779;52.096;4.410;2023-02-28T14:35:43;2.72;;;2.50;;
45041;SDS011;30779;52.096;4.410;2023-02-28T14:38:54;3.88;;;2.50;;
45041;SDS011;30779;52.096;4.410;2023-02-28T14:41:56;3.30;;;2.65;;
45041;SDS011;30779;52.096;4.410;2023-02-28T14:45:03;5.15;;;2.65;;
45041;SDS011;30779;52.096;4.410;2023-02-28T14:48:05;4.25;;;2.00;;
45041;SDS011;30779;52.096;4.410;2023-02-28T14:51:09;2.78;;;2.28;;
45041;SDS011;30779;52.096;4.410;2023-02-28T14:54:13;3.50;;;2.80;;
45041;SDS011;30779;52.096;4.410;2023-02-28T15:00:24;4.03;;;2.60;;
45041;SDS011;30779;52.096;4.410;2023-02-28T15:06:30;3.95;;;3.53;;
45041;SDS011;30779;52.096;4.410;2023-02-28T15:09:31;2.55;;;2.33;;
45041;SDS011;30779;52.096;4.410;2023-02-28T15:12:32;3.00;;;2.55;;
45041;SDS011;30779;52.096;4.410;2023-02-28T15:15:38;5.72;;;2.97;;
45041;SDS011;30779;52.096;4.410;2023-02-28T15:21:43;3.10;;;2.80;;
45041;SDS011;30779;52.096;4.410;2023-02-28T15:24:46;3.30;;;2.25;;
45041;SDS011;30779;52.096;4.410;2023-02-28T15:27:49;3.20;;;2.50;;
45041;SDS011;30779;52.096;4.410;2023-02-28T15:30:55;2.95;;;2.67;;
45041;SDS011;30779;52.096;4.410;2023-02-28T15:33:57;3.20;;;2.20;;
45041;SDS011;30779;52.096;4.410;2023-02-28T15:36:58;2.88;;;2.35;;
45041;SDS011;30779;52.096;4.410;2023-02-28T15:43:27;3.22;;;2.28;;
45041;SDS011;30779;52.096;4.410;2023-02-28T15:46:28;3.45;;;2.47;;
45041;SDS011;30779;52.096;4.410;2023-02-28T15:49:32;3.30;;;2.58;;
45041;SDS011;30779;52.096;4.410;2023-02-28T15:55:37;4.32;;;3.13;;
45041;SDS011;30779;52.096;4.410;2023-02-28T15:58:38;3.08;;;2.05;;
45041;SDS011;30779;52.096;4.410;2023-02-28T16:01:39;4.10;;;2.47;;
45041;SDS011;30779;52.096;4.410;2023-02-28T16:07:58;39.63;;;15.82;;
45041;SDS011;30779;52.096;4.410;2023-02-28T16:10:59;2.63;;;2.28;;
45041;SDS011;30779;52.096;4.410;2023-02-28T16:14:00;2.90;;;2.55;;
45041;SDS011;30779;52.096;4.410;2023-02-28T16:17:03;4.95;;;2.78;;
45041;SDS011;30779;52.096;4.410;2023-02-28T16:20:11;2.72;;;2.42;;
45041;SDS011;30779;52.096;4.410;2023-02-28T16:23:13;4.80;;;3.00;;
45041;SDS011;30779;52.096;4.410;2023-02-28T16:26:17;4.15;;;2.40;;
45041;SDS011;30779;52.096;4.410;2023-02-28T16:29:23;2.58;;;2.22;;
45041;SDS011;30779;52.096;4.410;2023-02-28T16:32:25;3.22;;;2.83;;
45041;SDS011;30779;52.096;4.410;2023-02-28T16:35:26;3.70;;;2.58;;
45041;SDS011;30779;52.096;4.410;2023-02-28T16:38:27;5.70;;;2.85;;
45041;SDS011;30779;52.096;4.410;2023-02-28T16:41:28;4.18;;;2.90;;
45041;SDS011;30779;52.096;4.410;2023-02-28T16:44:31;3.33;;;2.60;;
45041;SDS011;30779;52.096;4.410;2023-02-28T16:47:32;5.50;;;3.50;;
45041;SDS011;30779;52.096;4.410;2023-02-28T16:50:33;4.72;;;3.35;;
45041;SDS011;30779;52.096;4.410;2023-02-28T16:53:34;4.32;;;3.10;;
45041;SDS011;30779;52.096;4.410;2023-02-28T16:56:35;4.32;;;2.72;;
45041;SDS011;30779;52.096;4.410;2023-02-28T16:59:38;3.30;;;2.78;;
45041;SDS011;30779;52.096;4.410;2023-02-28T17:02:40;3.75;;;2.63;;
45041;SDS011;30779;52.096;4.410;2023-02-28T17:05:41;3.90;;;2.80;;
45041;SDS011;30779;52.096;4.410;2023-02-28T17:08:42;3.22;;;2.80;;
45041;SDS011;30779;52.096;4.410;2023-02-28T17:11:43;2.92;;;2.50;;
45041;SDS011;30779;52.096;4.410;2023-02-28T17:14:44;3.40;;;2.53;;
45041;SDS011;30779;52.096;4.410;2023-02-28T17:17:46;3.15;;;2.83;;
45041;SDS011;30779;52.096;4.410;2023-02-28T17:20:48;3.75;;;2.50;;
45041;SDS011;30779;52.096;4.410;2023-02-28T17:23:49;5.38;;;2.95;;
45041;SDS011;30779;52.096;4.410;2023-02-28T17:26:50;3.70;;;3.10;;
45041;SDS011;30779;52.096;4.410;2023-02-28T17:29:51;6.10;;;3.38;;
45041;SDS011;30779;52.096;4.410;2023-02-28T17:32:53;5.40;;;3.20;;
45041;SDS011;30779;52.096;4.410;2023-02-28T17:35:54;4.13;;;3.20;;
45041;SDS011;30779;52.096;4.410;2023-02-28T17:38:55;4.22;;;3.42;;
45041;SDS011;30779;52.096;4.410;2023-02-28T17:41:58;3.88;;;3.15;;
45041;SDS011;30779;52.096;4.410;2023-02-28T17:44:59;3.58;;;3.00;;
45041;SDS011;30779;52.096;4.410;2023-02-28T17:48:00;4.13;;;3.30;;
45041;SDS011;30779;52.096;4.410;2023-02-28T17:51:01;5.43;;;3.55;;
45041;SDS011;30779;52.096;4.410;2023-02-28T17:54:02;4.63;;;3.45;;
45041;SDS011;30779;52.096;4.410;2023-02-28T17:57:03;4.10;;;3.70;;
45041;SDS011;30779;52.096;4.410;2023-02-28T18:00:04;3.63;;;3.33;;
45041;SDS011;30779;52.096;4.410;2023-02-28T18:03:06;4.93;;;3.88;;
45041;SDS011;30779;52.096;4.410;2023-02-28T18:09:27;5.75;;;3.65;;
45041;SDS011;30779;52.096;4.410;2023-02-28T18:12:28;4.07;;;3.67;;
45041;SDS011;30779;52.096;4.410;2023-02-28T18:15:29;6.38;;;3.63;;
45041;SDS011;30779;52.096;4.410;2023-02-28T18:18:30;4.38;;;3.60;;
45041;SDS011;30779;52.096;4.410;2023-02-28T18:21:31;3.85;;;3.47;;
45041;SDS011;30779;52.096;4.410;2023-02-28T18:24:32;5.72;;;3.83;;
45041;SDS011;30779;52.096;4.410;2023-02-28T18:27:34;5.38;;;3.60;;
45041;SDS011;30779;52.096;4.410;2023-02-28T18:30:35;5.45;;;4.03;;
45041;SDS011;30779;52.096;4.410;2023-02-28T18:33:37;4.75;;;4.10;;
45041;SDS011;30779;52.096;4.410;2023-02-28T18:36:38;5.38;;;4.05;;
45041;SDS011;30779;52.096;4.410;2023-02-28T18:39:41;6.88;;;5.05;;
45041;SDS011;30779;52.096;4.410;2023-02-28T18:42:42;4.68;;;4.28;;
45041;SDS011;30779;52.096;4.410;2023-02-28T18:45:43;5.57;;;4.68;;
45041;SDS011;30779;52.096;4.410;2023-02-28T18:48:44;6.05;;;4.50;;
45041;SDS011;30779;52.096;4.410;2023-02-28T18:51:45;6.28;;;4.07;;
45041;SDS011;30779;52.096;4.410;2023-02-28T18:54:47;4.82;;;4.30;;
45041;SDS011;30779;52.096;4.410;2023-02-28T18:57:48;4.78;;;4.30;;
45041;SDS011;30779;52.096;4.410;2023-02-28T19:00:49;5.88;;;5.03;;
45041;SDS011;30779;52.096;4.410;2023-02-28T19:03:50;5.35;;;4.72;;
45041;SDS011;30779;52.096;4.410;2023-02-28T19:06:51;6.90;;;5.45;;
45041;SDS011;30779;52.096;4.410;2023-02-28T19:09:52;7.38;;;5.25;;
45041;SDS011;30779;52.096;4.410;2023-02-28T19:12:53;6.82;;;5.03;;
45041;SDS011;30779;52.096;4.410;2023-02-28T19:15:59;23.65;;;7.90;;
45041;SDS011;30779;52.096;4.410;2023-02-28T19:19:00;8.50;;;6.30;;
45041;SDS011;30779;52.096;4.410;2023-02-28T19:22:02;8.10;;;5.97;;
45041;SDS011;30779;52.096;4.410;2023-02-28T19:25:03;7.47;;;5.35;;
45041;SDS011;30779;52.096;4.410;2023-02-28T19:28:05;8.57;;;5.57;;
45041;SDS011;30779;52.096;4.410;2023-02-28T19:31:16;9.15;;;5.80;;
45041;SDS011;30779;52.096;4.410;2023-02-28T19:34:18;9.23;;;6.28;;
45041;SDS011;30779;52.096;4.410;2023-02-28T19:37:19;7.60;;;6.35;;
45041;SDS011;30779;52.096;4.410;2023-02-28T19:40:20;7.40;;;6.38;;
45041;SDS011;30779;52.096;4.410;2023-02-28T19:43:21;9.57;;;6.55;;
45041;SDS011;30779;52.096;4.410;2023-02-28T19:46:22;8.43;;;6.43;;
45041;SDS011;30779;52.096;4.410;2023-02-28T19:49:24;8.25;;;6.32;;
45041;SDS011;30779;52.096;4.410;2023-02-28T19:52:25;7.80;;;6.60;;
45041;SDS011;30779;52.096;4.410;2023-02-28T19:55:26;8.60;;;6.55;;
45041;SDS011;30779;52.096;4.410;2023-02-28T19:58:28;11.75;;;6.20;;
45041;SDS011;30779;52.096;4.410;2023-02-28T20:01:29;9.02;;;7.10;;
45041;SDS011;30779;52.096;4.410;2023-02-28T20:04:30;7.57;;;6.05;;
45041;SDS011;30779;52.096;4.410;2023-02-28T20:07:31;9.63;;;7.65;;
45041;SDS011;30779;52.096;4.410;2023-02-28T20:10:32;8.52;;;6.80;;
45041;SDS011;30779;52.096;4.410;2023-02-28T20:13:33;8.15;;;6.63;;
45041;SDS011;30779;52.096;4.410;2023-02-28T20:16:34;8.70;;;6.65;;
45041;SDS011;30779;52.096;4.410;2023-02-28T20:19:35;9.40;;;6.53;;
45041;SDS011;30779;52.096;4.410;2023-02-28T20:22:37;7.75;;;6.40;;
45041;SDS011;30779;52.096;4.410;2023-02-28T20:25:38;8.57;;;6.70;;
45041;SDS011;30779;52.096;4.410;2023-02-28T20:28:40;7.75;;;6.32;;
45041;SDS011;30779;52.096;4.410;2023-02-28T20:31:41;7.82;;;6.57;;
45041;SDS011;30779;52.096;4.410;2023-02-28T20:34:42;7.97;;;7.18;;
45041;SDS011;30779;52.096;4.410;2023-02-28T20:37:43;8.00;;;6.95;;
45041;SDS011;30779;52.096;4.410;2023-02-28T20:40:45;10.70;;;7.28;;
45041;SDS011;30779;52.096;4.410;2023-02-28T20:43:51;9.32;;;7.55;;
45041;SDS011;30779;52.096;4.410;2023-02-28T20:46:52;10.80;;;6.80;;